Time;durP1;ratioP1;P1;durP2;ratioP2;P2;SDS_P1;SDS_P2;PMS_P1;PMS_P2;Temp;Humidity;BMP_temperature;BMP_pressure;BME280_temperature;BME280_humidity;BME280_pressure;Samples;Min_cycle;Max_cycle;Signal;HPM_P1;HPM_P2
2023/07/27 00:03:16;;;;;;;2.70;1.83;;;;;;;20.82;73.16;100645.91;20997444;28;20122;-66
2023/07/27 00:13:18;;;;;;;2.95;1.80;;;;;;;20.82;72.87;100636.94;20996827;28;20052;-66
2023/07/27 00:23:20;;;;;;;3.20;2.10;;;;;;;20.80;72.75;100625.44;20923543;28;20496;-66
2023/07/27 00:33:22;;;;;;;3.05;1.95;;;;;;;20.78;72.59;100617.44;20970035;28;20052;-66
2023/07/27 00:43:23;;;;;;;2.38;1.92;;;;;;;20.77;72.38;100601.38;21023431;28;20056;-66
2023/07/27 00:53:25;;;;;;;2.38;1.50;;;;;;;20.76;72.51;100596.97;20994087;28;20040;-66
2023/07/27 01:03:28;;;;;;;2.85;1.92;;;;;;;20.76;72.24;100591.56;20992710;28;20052;-66
2023/07/27 01:13:38;;;;;;;2.88;2.10;;;;;;;20.73;72.20;100571.94;20993013;28;20052;-66
2023/07/27 01:24:04;;;;;;;2.70;2.00;;;;;;;20.73;72.07;100549.47;20992015;28;20049;-66
2023/07/27 01:34:09;;;;;;;3.05;2.10;;;;;;;20.71;72.24;100538.78;20973116;28;20049;-66
2023/07/27 01:44:11;;;;;;;2.60;2.28;;;;;;;20.72;72.40;100526.97;21048182;28;20508;-66
2023/07/27 01:54:13;;;;;;;3.80;2.17;;;;;;;20.71;72.16;100514.44;21071883;28;20052;-66
2023/07/27 02:04:15;;;;;;;2.70;1.85;;;;;;;20.69;72.18;100500.25;21072986;28;20045;-66
2023/07/27 02:14:18;;;;;;;1.90;1.70;;;;;;;20.69;72.68;100492.13;21071104;28;20048;-66
2023/07/27 02:24:20;;;;;;;2.30;2.10;;;;;;;20.68;72.76;100481.50;21069463;28;20147;-66
2023/07/27 02:34:22;;;;;;;2.42;2.03;;;;;;;20.66;72.97;100468.13;21067176;28;20066;-66
2023/07/27 02:44:25;;;;;;;3.90;2.22;;;;;;;20.64;72.95;100462.03;21007349;28;20389;-66
2023/07/27 02:54:26;;;;;;;2.40;1.85;;;;;;;20.60;72.88;100455.25;20983778;28;20408;-66
2023/07/27 03:04:29;;;;;;;2.33;1.80;;;;;;;20.62;73.45;100452.41;20982990;28;20083;-66
2023/07/27 03:14:31;;;;;;;3.33;2.20;;;;;;;20.61;73.30;100446.13;20982380;28;20515;-66
2023/07/27 03:24:33;;;;;;;3.10;2.17;;;;;;;20.59;73.67;100434.63;20964856;28;20102;-66
2023/07/27 03:34:34;;;;;;;2.22;1.52;;;;;;;20.58;73.72;100433.81;20991430;28;20123;-66
2023/07/27 03:44:37;;;;;;;3.20;2.03;;;;;;;20.57;73.32;100418.59;21061866;28;20518;-66
2023/07/27 03:54:40;;;;;;;2.50;2.27;;;;;;;20.56;73.53;100405.22;20956687;28;20132;-66
2023/07/27 04:04:42;;;;;;;2.30;1.70;;;;;;;20.55;74.18;100395.41;20980620;28;20084;-66
2023/07/27 04:14:44;;;;;;;2.95;2.13;;;;;;;20.54;73.86;100377.50;20992168;28;20424;-66
2023/07/27 04:24:45;;;;;;;3.13;2.40;;;;;;;20.54;73.79;100363.97;20979457;28;20061;-66
2023/07/27 04:34:47;;;;;;;2.42;2.13;;;;;;;20.53;72.69;100348.78;20991426;28;20048;-66
2023/07/27 04:44:49;;;;;;;2.53;1.90;;;;;;;20.51;72.98;100334.56;21016552;28;20087;-66
2023/07/27 04:54:50;;;;;;;2.80;2.13;;;;;;;20.51;73.35;100326.47;21038431;28;20040;-66
2023/07/27 05:04:52;;;;;;;3.17;1.80;;;;;;;20.52;74.25;100314.63;21022291;28;20044;-64
2023/07/27 05:14:54;;;;;;;3.60;1.90;;;;;;;20.59;75.68;100294.00;21029985;28;20119;-64
2023/07/27 05:24:56;;;;;;;2.60;2.05;;;;;;;20.69;75.79;100293.84;21014006;28;20130;-65
2023/07/27 05:34:57;;;;;;;1.90;1.70;;;;;;;20.68;75.77;100265.13;20983087;28;20493;-65
2023/07/27 05:44:59;;;;;;;2.85;2.03;;;;;;;20.65;75.97;100260.06;20990620;28;20110;-65
2023/07/27 05:55:01;;;;;;;2.28;1.65;;;;;;;20.62;76.26;100261.22;20989348;28;20090;-65
2023/07/27 06:05:03;;;;;;;3.25;2.28;;;;;;;20.61;76.47;100256.81;20988778;28;20056;-65
2023/07/27 06:15:05;;;;;;;2.53;1.80;;;;;;;20.59;76.80;100250.75;20986700;28;20053;-65
2023/07/27 06:25:07;;;;;;;3.45;1.90;;;;;;;20.60;76.58;100241.63;20986859;28;20048;-65
2023/07/27 06:35:10;;;;;;;2.45;1.63;;;;;;;20.55;77.23;100225.06;21027675;28;20089;-65
2023/07/27 06:45:12;;;;;;;2.25;1.83;;;;;;;20.58;76.94;100216.59;21069510;28;20098;-65
2023/07/27 06:55:14;;;;;;;2.28;1.63;;;;;;;20.57;77.19;100209.50;21050617;28;20052;-65
2023/07/27 07:05:16;;;;;;;3.08;1.92;;;;;;;20.56;77.61;100191.59;21067834;28;20048;-65
2023/07/27 07:15:17;;;;;;;2.47;1.90;;;;;;;20.57;78.38;100182.47;21066887;28;20048;-65
2023/07/27 07:25:19;;;;;;;2.60;1.95;;;;;;;20.56;78.33;100170.81;21065981;28;20044;-65
2023/07/27 07:35:22;;;;;;;2.53;1.60;;;;;;;20.56;78.62;100159.16;21053357;28;20072;-65
2023/07/27 07:45:24;;;;;;;1.90;1.70;;;;;;;20.55;78.84;100144.81;21066324;28;20040;-65
2023/07/27 07:55:26;;;;;;;2.28;1.80;;;;;;;20.55;79.16;100119.59;21066457;28;20097;-65
2023/07/27 08:05:27;;;;;;;2.35;1.70;;;;;;;20.54;79.35;100109.81;20961636;28;20475;-65
2023/07/27 08:15:29;;;;;;;1.60;1.42;;;;;;;20.54;79.89;100096.28;20896434;28;20093;-65
2023/07/27 08:25:37;;;;;;;1.88;1.50;;;;;;;20.54;80.39;100080.88;20916686;28;20098;-65
2023/07/27 08:35:39;;;;;;;1.90;1.58;;;;;;;20.54;80.69;100071.94;21068553;28;20063;-65
2023/07/27 08:45:41;;;;;;;1.75;1.42;;;;;;;20.55;80.84;100065.53;21079952;28;20048;-65
2023/07/27 08:55:43;;;;;;;1.50;1.40;;;;;;;20.52;81.13;100055.06;21078636;28;20044;-65
2023/07/27 09:05:59;;;;;;;3.08;1.35;;;;;;;20.54;81.10;100059.25;21077388;28;20048;-65
2023/07/27 09:16:02;;;;;;;1.63;1.33;;;;;;;20.57;82.18;100047.25;21076704;28;20075;-65
2023/07/27 09:26:05;;;;;;;2.13;1.13;;;;;;;20.57;82.26;100036.44;21063768;28;20051;-65
2023/07/27 09:36:09;;;;;;;1.40;1.30;;;;;;;20.56;81.66;100023.94;21075292;28;20133;-65
2023/07/27 09:46:13;;;;;;;1.45;1.20;;;;;;;20.56;81.83;100008.59;21074944;28;20079;-64
2023/07/27 09:56:15;;;;;;;1.00;0.90;;;;;;;20.60;82.08;100010.94;21073791;28;20044;-65
2023/07/27 10:06:17;;;;;;;1.92;1.08;;;;;;;20.61;82.54;100005.34;21072329;28;20135;-65
2023/07/27 10:16:22;;;;;;;1.20;1.10;;;;;;;20.60;82.70;99994.72;21070766;28;20087;-65
2023/07/27 10:26:40;;;;;;;0.90;0.90;;;;;;;20.63;83.13;100003.28;21056474;28;20043;-65
2023/07/27 10:36:47;;;;;;;1.77;0.90;;;;;;;;;;21067936;28;20052;-65
2023/07/27 10:46:54;;;;;;;0.60;0.60;;;;;;;20.64;84.11;99993.34;20962355;28;20076;-66
2023/07/27 10:56:56;;;;;;;0.80;0.80;;;;;;;20.65;85.58;99987.72;20968127;28;20056;-66
2023/07/27 11:06:58;;;;;;;0.82;0.70;;;;;;;20.68;86.87;99973.03;20965307;28;20070;-65
2023/07/27 11:17:00;;;;;;;0.60;0.60;;;;;;;20.75;87.36;99967.72;20976449;28;20040;-64
2023/07/27 11:27:01;;;;;;;0.82;0.70;;;;;;;20.79;87.72;99972.66;20951295;28;20041;-64
2023/07/27 11:37:03;;;;;;;0.63;0.60;;;;;;;20.83;87.53;99948.81;20954065;28;20037;-65
2023/07/27 11:47:07;;;;;;;0.50;0.50;;;;;;;20.86;88.22;99941.16;20954983;28;20045;-64
2023/07/27 11:57:09;;;;;;;1.17;0.88;;;;;;;20.90;88.77;99938.94;20985326;28;20040;-63
2023/07/27 12:07:10;;;;;;;0.50;0.50;;;;;;;20.93;89.27;99933.16;20958002;28;20440;-63
2023/07/27 12:17:12;;;;;;;0.40;0.40;;;;;;;20.95;89.71;99936.53;20969599;28;20084;-63
2023/07/27 12:27:17;;;;;;;;;;;;;;;20.96;90.54;99938.22;20966654;28;21904;-64
2023/07/27 12:37:18;;;;;;;0.50;0.40;;;;;;;20.97;90.56;99931.78;20961077;28;20348;-63
2023/07/27 12:47:23;;;;;;;;;;;;;;;21.00;91.34;99923.31;20991354;28;20048;-64
2023/07/27 12:57:24;;;;;;;1.27;0.40;;;;;;;21.00;91.63;99912.47;20988878;28;19920;-63
2023/07/27 13:07:26;;;;;;;1.20;0.40;;;;;;;21.04;92.03;99922.94;20985217;28;20071;-62
2023/07/27 13:17:29;;;;;;;0.50;0.32;;;;;;;21.06;92.43;99918.19;20979656;28;20584;-63
2023/07/27 13:27:31;;;;;;;1.25;0.65;;;;;;;21.08;92.94;99916.13;20983971;28;20057;-63
2023/07/27 13:37:33;;;;;;;0.35;0.30;;;;;;;21.09;93.24;99921.38;20987927;28;20552;-63
2023/07/27 13:47:35;;;;;;;1.88;0.50;;;;;;;21.11;93.74;99918.47;20972948;28;20087;-63
2023/07/27 13:57:37;;;;;;;2.92;0.50;;;;;;;21.14;93.79;99918.13;20995611;28;20048;-63
2023/07/27 14:07:39;;;;;;;0.55;0.20;;;;;;;21.19;93.34;99921.13;20991386;28;20538;-64
2023/07/27 14:17:41;;;;;;;1.98;0.40;;;;;;;21.23;93.52;99913.47;20985043;28;20070;-64
2023/07/27 14:27:43;;;;;;;0.50;0.40;;;;;;;21.23;93.69;99906.22;20987403;28;20040;-66
2023/07/27 14:37:45;;;;;;;0.95;0.30;;;;;;;21.27;93.52;99909.38;20977200;28;20068;-65
2023/07/27 14:47:46;;;;;;;0.35;0.20;;;;;;;21.28;93.32;99909.22;20971447;28;20045;-65
2023/07/27 14:57:48;;;;;;;0.20;0.20;;;;;;;21.33;93.33;99914.06;20987562;28;20055;-65
2023/07/27 15:07:50;;;;;;;0.38;0.20;;;;;;;21.34;93.91;99898.69;20972962;28;20040;-66
2023/07/27 15:17:52;;;;;;;0.35;0.20;;;;;;;21.34;95.26;99896.78;20963229;28;20040;-68
2023/07/27 15:27:54;;;;;;;11.13;4.25;;;;;;;21.39;97.33;99897.06;20974846;28;20048;-71
2023/07/27 15:37:56;;;;;;;10.23;2.90;;;;;;;21.44;98.13;99896.53;20948147;28;20060;-70
2023/07/27 15:47:57;;;;;;;6.82;2.97;;;;;;;21.45;98.09;99881.97;20939848;28;20420;-68
2023/07/27 15:57:59;;;;;;;9.98;4.00;;;;;;;21.54;99.69;99886.28;20944386;28;20163;-66
2023/07/27 16:08:01;;;;;;;10.07;3.47;;;;;;;21.66;100.00;99889.41;20954333;28;20113;-68
2023/07/27 16:18:03;;;;;;;8.35;3.53;;;;;;;21.70;100.00;99890.72;20939268;28;20420;-67
2023/07/27 16:28:05;;;;;;;5.70;2.65;;;;;;;21.73;100.00;99886.81;20942926;28;20586;-69
2023/07/27 16:38:06;;;;;;;4.80;2.50;;;;;;;21.73;100.00;99878.69;20965669;28;20048;-69
2023/07/27 16:48:08;;;;;;;6.50;2.38;;;;;;;21.68;100.00;99879.22;21004527;28;20067;-67
2023/07/27 16:58:10;;;;;;;5.63;2.70;;;;;;;21.57;100.00;99876.94;21000953;28;20044;-66
2023/07/27 17:08:12;;;;;;;6.78;2.20;;;;;;;21.54;100.00;99874.63;21025472;28;20078;-63
2023/07/27 17:18:13;;;;;;;7.03;2.03;;;;;;;21.42;100.00;99882.34;21020933;28;20052;-64
2023/07/27 17:28:15;;;;;;;6.50;2.30;;;;;;;21.28;100.00;99879.44;21012325;28;20106;-64
2023/07/27 17:38:19;;;;;;;5.65;1.88;;;;;;;21.31;100.00;99897.16;21029747;28;20051;-64
2023/07/27 17:48:22;;;;;;;3.87;1.87;;;;;;;21.26;100.00;99900.44;21002870;28;20057;-64
2023/07/27 17:58:23;;;;;;;4.15;1.92;;;;;;;21.25;100.00;99900.59;20989674;28;20131;-64
2023/07/27 18:08:25;;;;;;;2.90;1.50;;;;;;;21.22;100.00;99898.25;20989024;28;20464;-64
2023/07/27 18:18:27;;;;;;;2.75;1.83;;;;;;;21.19;100.00;99899.47;21031789;28;20058;-64
2023/07/27 18:28:30;;;;;;;3.75;1.75;;;;;;;21.18;100.00;99907.78;21052654;28;20080;-64
2023/07/27 18:38:31;;;;;;;2.95;1.95;;;;;;;21.18;100.00;99914.03;21070455;28;20052;-64
2023/07/27 18:48:33;;;;;;;3.58;1.95;;;;;;;21.16;100.00;99905.25;21067655;28;20048;-64
2023/07/27 18:58:35;;;;;;;3.80;1.80;;;;;;;21.15;100.00;99904.41;21043382;28;20156;-64
2023/07/27 19:08:39;;;;;;;3.78;1.92;;;;;;;21.15;100.00;99908.97;20997945;28;20051;-64
2023/07/27 19:18:41;;;;;;;2.58;1.58;;;;;;;21.14;100.00;99913.56;21024209;28;20102;-64
2023/07/27 19:28:42;;;;;;;2.45;1.90;;;;;;;21.15;100.00;99919.78;21026440;28;20078;-64
2023/07/27 19:38:44;;;;;;;2.70;1.60;;;;;;;21.14;100.00;99918.13;21008132;28;20071;-64
2023/07/27 19:48:46;;;;;;;4.45;2.50;;;;;;;21.14;100.00;99928.94;20997872;28;20083;-64
2023/07/27 19:58:48;;;;;;;5.47;2.40;;;;;;;21.15;100.00;99941.44;20991480;28;20048;-64
2023/07/27 20:08:49;;;;;;;4.88;2.28;;;;;;;21.13;100.00;99948.91;21041218;28;20037;-64
2023/07/27 20:18:51;;;;;;;3.50;2.00;;;;;;;21.11;100.00;99949.09;21054418;28;20052;-64
2023/07/27 20:28:55;;;;;;;3.77;2.20;;;;;;;21.10;100.00;99954.69;21055325;28;20098;-64
2023/07/27 20:38:57;;;;;;;4.60;2.20;;;;;;;21.09;100.00;99947.59;20963070;28;20056;-64
2023/07/27 20:48:58;;;;;;;4.70;2.42;;;;;;;21.07;100.00;99946.94;20999453;28;20045;-64
2023/07/27 20:59:00;;;;;;;4.20;2.13;;;;;;;21.05;100.00;99940.84;21028736;28;20135;-64
2023/07/27 21:09:02;;;;;;;3.53;2.10;;;;;;;20.99;100.00;99931.59;21005159;28;20127;-64
2023/07/27 21:19:04;;;;;;;4.05;2.10;;;;;;;21.03;100.00;99937.50;21010351;28;20131;-64
2023/07/27 21:29:05;;;;;;;3.78;1.80;;;;;;;21.02;100.00;99939.38;21029370;28;20465;-64
2023/07/27 21:39:07;;;;;;;2.78;1.80;;;;;;;21.02;100.00;99936.66;21020272;28;20131;-64
2023/07/27 21:49:08;;;;;;;2.90;1.70;;;;;;;21.01;100.00;99935.81;20998449;28;20044;-64
2023/07/27 21:59:10;;;;;;;2.72;1.60;;;;;;;21.00;100.00;99944.13;21015330;28;20048;-64
2023/07/27 22:09:12;;;;;;;1.58;1.25;;;;;;;20.99;100.00;99947.81;20990806;28;20578;-64
2023/07/27 22:19:14;;;;;;;1.42;1.17;;;;;;;20.99;100.00;99964.91;21000917;28;20417;-64
2023/07/27 22:29:15;;;;;;;1.92;1.45;;;;;;;20.98;100.00;99962.38;21024090;28;20480;-64
2023/07/27 22:39:17;;;;;;;1.92;1.38;;;;;;;20.98;100.00;99957.81;21022002;28;20102;-64
2023/07/27 22:49:20;;;;;;;1.35;1.00;;;;;;;20.98;100.00;99968.63;20980094;28;20048;-64
2023/07/27 22:59:21;;;;;;;2.10;0.90;;;;;;;20.98;100.00;99976.75;20999274;28;20098;-64
2023/07/27 23:09:23;;;;;;;1.60;1.00;;;;;;;20.98;100.00;99979.47;20991519;28;20115;-64
2023/07/27 23:19:25;;;;;;;2.53;1.20;;;;;;;20.97;100.00;99969.66;21020409;28;20052;-65
2023/07/27 23:29:26;;;;;;;2.25;1.40;;;;;;;20.97;100.00;99974.22;20992879;28;20048;-64
2023/07/27 23:39:28;;;;;;;1.38;1.17;;;;;;;20.95;100.00;99969.00;20985107;28;20040;-64
2023/07/27 23:49:30;;;;;;;1.63;1.30;;;;;;;20.96;100.00;99986.91;20982779;28;20085;-64
2023/07/27 23:59:31;;;;;;;2.15;1.60;;;;;;;20.95;100.00;99982.53;20988925;28;20485;-64
